1884 NOT_NAMED (1884322N14126)


IBTrACS version v04r00. Visit IBTrACS website for data access.
Please direct all questions to the IBTrACS Q and A forum

Storm track - Intensity - Wind Radii - Intensity Data - Source Data - All data

Summary Information

Storm ID 1884322N14126
Start Nov 17 04Z
Landfall Nov 18 06Z
End Nov 23 04Z
ATCF IDs
Track status Best track data.

Storm track plot

Map of storm track

Intensity plots

No Intensity information for this storm


Radial wind information

No radial wind information for this storm


Position and Intensity Table

BASIN ISO_TIME_________ NATURE LAT LON
degrees north degrees east
WP 1884-11-17 04:00:00 NR 13.50 126.00
WP 06:00:00 NR 13.71 125.62
WP 09:00:00 NR 14.02 125.05
WP 12:00:00 NR 14.33 124.47
WP 15:00:00 NR 14.61 123.89
WP 16:00:00 NR 14.70 123.70
WP 18:00:00 NR 14.87 123.31
WP 21:00:00 NR 15.10 122.75
WP 1884-11-18 00:00:00 NR 15.30 122.22
WP 03:00:00 NR 15.46 121.74
WP 04:00:00 NR 15.50 121.60
WP 06:00:00 NR 15.57 121.36
WP 09:00:00 NR 15.64 121.05
WP 12:00:00 NR 15.67 120.78
WP 15:00:00 NR 15.69 120.50
WP 16:00:00 NR 15.70 120.40
WP 18:00:00 NR 15.73 120.15
WP 21:00:00 NR 15.76 119.74
WP 1884-11-19 00:00:00 NR 15.78 119.32
WP 03:00:00 NR 15.80 118.92
WP 04:00:00 NR 15.80 118.80
WP 06:00:00 NR 15.81 118.58
WP 09:00:00 NR 15.82 118.28
WP 12:00:00 NR 15.82 117.99
WP 15:00:00 NR 15.81 117.70
WP 16:00:00 NR 15.80 117.60
WP 18:00:00 NR 15.78 117.37
WP 21:00:00 NR 15.75 117.01
WP 1884-11-20 00:00:00 NR 15.69 116.65
WP 03:00:00 NR 15.63 116.31
WP 04:00:00 NR 15.60 116.20
WP 06:00:00 NR 15.55 116.01
WP 09:00:00 NR 15.46 115.76
WP 12:00:00 NR 15.36 115.52
WP 15:00:00 NR 15.24 115.28
WP 16:00:00 NR 15.20 115.20
WP 18:00:00 NR 15.12 115.01
WP 21:00:00 NR 14.98 114.72
WP 1884-11-21 00:00:00 NR 14.83 114.44
WP 03:00:00 NR 14.66 114.18
WP 04:00:00 NR 14.60 114.10
WP 06:00:00 NR 14.48 113.96
WP 09:00:00 NR 14.28 113.78
WP 12:00:00 NR 14.08 113.62
WP 15:00:00 NR 13.87 113.46
WP 16:00:00 NR 13.80 113.40
WP 18:00:00 NR 13.67 113.26
WP 21:00:00 NR 13.47 113.05
WP 1884-11-22 00:00:00 NR 13.27 112.85
WP 03:00:00 NR 13.07 112.66
WP 04:00:00 NR 13.00 112.60
WP 06:00:00 NR 12.87 112.50
WP 09:00:00 NR 12.69 112.38
WP 12:00:00 NR 12.49 112.27
WP 15:00:00 NR 12.28 112.14
WP 16:00:00 NR 12.20 112.10
WP 18:00:00 NR 12.04 112.00
WP 21:00:00 NR 11.77 111.84
WP 1884-11-23 00:00:00 NR 11.49 111.65
WP 03:00:00 NR 11.20 111.46
WP 04:00:00 NR 11.10 111.40

Source Information

Agency Information
USA
TOKYO
CMA
HKO
NEWDELHI
REUNION
BOM
NADI
WELLINGTON
DS824
TD9636 cons_worldwide_trop_cyclone_18710101-19891231-003:Line=127
TD9635
NEUMANN
MLC

All available IBTrACS Data

SEASON BASIN SUBBASIN ISO_TIME_________ NATURE LAT LON DIST2LAND LANDFALL IFLAG USA SSHS TD9636 LAT TD9636 LON TD9636 STAGE STORM SPEED STORM DIR
Year degrees north degrees east km km 1 degrees north degrees east kts degrees
1884 WP MM 1884-11-17 04:00:00 NR 13.50 126.00 141 129 __________O___ -1 13.50 126.00 7 13 300
1884 WP MM 06:00:00 NR 13.71 125.62 129 65 __________P___ -1 13.71 125.62 7 13 299
1884 WP MM 09:00:00 NR 14.02 125.05 65 39 __________P___ -1 14.02 125.05 7 13 299
1884 WP MM 12:00:00 NR 14.33 124.47 39 35 __________P___ -1 14.33 124.47 7 13 298
1884 WP MM 15:00:00 NR 14.61 123.89 70 70 __________P___ -1 14.61 123.89 7 13 297
1884 WP MM 16:00:00 NR 14.70 123.70 89 84 __________O___ -1 14.70 123.70 7 12 295
1884 WP MM 18:00:00 NR 14.87 123.31 89 84 __________P___ -1 14.87 123.31 7 12 294
1884 WP MM 21:00:00 NR 15.10 122.75 100 78 __________P___ -1 15.10 122.75 7 11 292
1884 WP MM 1884-11-18 00:00:00 NR 15.30 122.22 78 21 __________P___ -1 15.30 122.22 7 10 290
1884 WP MM 03:00:00 NR 15.46 121.74 21 10 __________P___ -1 15.46 121.74 7 9 288
1884 WP MM 04:00:00 NR 15.50 121.60 10 0 __________O___ -1 15.50 121.60 3 8 287
1884 WP MM 06:00:00 NR 15.57 121.36 0 0 __________P___ -1 15.57 121.36 3 7 285
1884 WP MM 09:00:00 NR 15.64 121.05 0 0 __________P___ -1 15.64 121.05 3 6 281
1884 WP MM 12:00:00 NR 15.67 120.78 0 0 __________P___ -1 15.67 120.78 3 5 276
1884 WP MM 15:00:00 NR 15.69 120.50 0 0 __________P___ -1 15.69 120.50 3 6 274
1884 WP MM 16:00:00 NR 15.70 120.40 0 0 __________O___ -1 15.70 120.40 4 7 275
1884 WP MM 18:00:00 NR 15.73 120.15 0 0 __________P___ -1 15.73 120.15 4 8 275
1884 WP MM 21:00:00 NR 15.76 119.74 15 15 __________P___ -1 15.76 119.74 4 8 274
1884 WP MM 1884-11-19 00:00:00 NR 15.78 119.32 48 48 __________P___ -1 15.78 119.32 4 8 273
1884 WP MM 03:00:00 NR 15.80 118.92 88 88 __________P___ -1 15.80 118.92 4 8 272
1884 WP MM 04:00:00 NR 15.80 118.80 98 98 __________O___ -1 15.80 118.80 4 7 272
1884 WP MM 06:00:00 NR 15.81 118.58 119 119 __________P___ -1 15.81 118.58 4 6 272
1884 WP MM 09:00:00 NR 15.82 118.28 151 151 __________P___ -1 15.82 118.28 4 6 271
1884 WP MM 12:00:00 NR 15.82 117.99 183 183 __________P___ -1 15.82 117.99 4 6 269
1884 WP MM 15:00:00 NR 15.81 117.70 215 215 __________P___ -1 15.81 117.70 4 6 267
1884 WP MM 16:00:00 NR 15.80 117.60 225 225 __________O___ -1 15.80 117.60 4 6 266
1884 WP MM 18:00:00 NR 15.78 117.37 247 257 __________P___ -1 15.78 117.37 4 7 265
1884 WP MM 21:00:00 NR 15.75 117.01 290 290 __________P___ -1 15.75 117.01 4 7 263
1884 WP MM 1884-11-20 00:00:00 NR 15.69 116.65 333 333 __________P___ -1 15.69 116.65 4 7 260
1884 WP MM 03:00:00 NR 15.63 116.31 366 366 __________P___ -1 15.63 116.31 4 7 258
1884 WP MM 04:00:00 NR 15.60 116.20 377 377 __________O___ -1 15.60 116.20 4 6 255
1884 WP MM 06:00:00 NR 15.55 116.01 400 400 __________P___ -1 15.55 116.01 4 5 252
1884 WP MM 09:00:00 NR 15.46 115.76 421 431 __________P___ -1 15.46 115.76 4 5 248
1884 WP MM 12:00:00 NR 15.36 115.52 454 454 __________P___ -1 15.36 115.52 4 5 244
1884 WP MM 15:00:00 NR 15.24 115.28 479 479 __________P___ -1 15.24 115.28 4 5 243
1884 WP MM 16:00:00 NR 15.20 115.20 490 490 __________O___ -1 15.20 115.20 4 6 244
1884 WP MM 18:00:00 NR 15.12 115.01 513 513 __________P___ -1 15.12 115.01 4 6 244
1884 WP MM 21:00:00 NR 14.98 114.72 547 547 __________P___ -1 14.98 114.72 4 6 242
1884 WP MM 1884-11-21 00:00:00 NR 14.83 114.44 558 535 __________P___ -1 14.83 114.44 4 6 239
1884 WP MM 03:00:00 NR 14.66 114.18 535 523 __________P___ -1 14.66 114.18 4 6 235
1884 WP MM 04:00:00 NR 14.60 114.10 523 511 __________O___ -1 14.60 114.10 4 6 229
1884 WP MM 06:00:00 NR 14.48 113.96 511 487 __________P___ -1 14.48 113.96 4 5 224
1884 WP MM 09:00:00 NR 14.28 113.78 487 463 __________P___ -1 14.28 113.78 4 5 220
1884 WP MM 12:00:00 NR 14.08 113.62 463 447 __________P___ -1 14.08 113.62 4 5 217
1884 WP MM 15:00:00 NR 13.87 113.46 447 434 __________P___ -1 13.87 113.46 4 5 217
1884 WP MM 16:00:00 NR 13.80 113.40 434 421 __________O___ -1 13.80 113.40 4 6 222
1884 WP MM 18:00:00 NR 13.67 113.26 421 395 __________P___ -1 13.67 113.26 4 6 225
1884 WP MM 21:00:00 NR 13.47 113.05 395 360 __________P___ -1 13.47 113.05 4 6 225
1884 WP MM 1884-11-22 00:00:00 NR 13.27 112.85 360 347 __________P___ -1 13.27 112.85 4 6 224
1884 WP MM 03:00:00 NR 13.07 112.66 347 336 __________P___ -1 13.07 112.66 4 5 222
1884 WP MM 04:00:00 NR 13.00 112.60 336 325 __________O___ -1 13.00 112.60 4 5 218
1884 WP MM 06:00:00 NR 12.87 112.50 325 314 __________P___ -1 12.87 112.50 4 5 214
1884 WP MM 09:00:00 NR 12.69 112.38 315 304 __________P___ -1 12.69 112.38 4 5 211
1884 WP MM 12:00:00 NR 12.49 112.27 304 284 __________P___ -1 12.49 112.27 4 5 209
1884 WP MM 15:00:00 NR 12.28 112.14 284 284 __________P___ -1 12.28 112.14 4 5 209
1884 WP MM 16:00:00 NR 12.20 112.10 286 277 __________O___ -1 12.20 112.10 4 6 210
1884 WP MM 18:00:00 NR 12.04 112.00 279 265 __________P___ -1 12.04 112.00 4 6 211
1884 WP MM 21:00:00 NR 11.77 111.84 265 263 __________P___ -1 11.77 111.84 4 6 212
1884 WP MM 1884-11-23 00:00:00 NR 11.49 111.65 265 249 __________P___ -1 11.49 111.65 4 7 212
1884 WP MM 03:00:00 NR 11.20 111.46 252 241 __________P___ -1 11.20 111.46 4 7 213
1884 WP MM 04:00:00 NR 11.10 111.40 245 __________O___ -1 11.10 111.40 4 7 214